Terminal Aerodrome Forecast
Issued by NWS Flagstaff, AZ

Current Version | Previous Version | Text Only | Print | Product List | Glossary On
Versions: 1 2 3 4 5 6 7 8 9 10 11 12
854
FTUS45 KFGZ 240527
TAFINW
TAF
KINW 240527Z 2406/2506 20006KT P6SM SKC
      TEMPO 2415/2418 17013G22KT
     FM241800 21021G31KT P6SM SKC
     FM250400 19008KT P6SM SKC=

USA.gov is the U.S. government's official web portal to all federal, state and local government web resources and services.